Valiant — NA35 — position and weather

sailwx.info

Track history (hours):
 
Tides and Currents Weather Stations Pressure Air Temp Water Temp Dewpoint Dewpoint Depression Visibility Wind Speed Wind Dir Waves Ship Positions

Valiant

Last reported at 2017-May-13 18:56 UTC. Time now 2017-May-23 17:02 UTC.
Position N 39°27' W 075°59'.
Warning: this ship's position is 9 days out of date.

Length 14 m.

Type: Sailing vessel. MMSI: 369970076.

Date/timePositionNaut miles runAvg speedWind from/ knotsBaromVisibWave heightAir tempDewpointWater temp
2017-May-13 18:56N 39°27' W 075°59'3 6.9
2017-May-13 18:30N 39°30' W 075°56'4 6.8
2017-May-13 17:59N 39°32' W 075°52'3 6.6
2017-May-13 17:31N 39°32' W 075°48'3 6.4
2017-May-13 17:01N 39°32' W 075°44'3 5.8
2017-May-13 16:31N 39°33' W 075°40'3 6.1
2017-May-13 16:01N 39°33' W 075°36'3 5.8
2017-May-13 15:30N 39°34' W 075°33'4 7.4
2017-May-13 15:01N 39°30' W 075°33'3 5.1
2017-May-13 14:30N 39°28' W 075°33'5 5.0
2017-May-13 13:31N 39°24' W 075°29'2 3.6
2017-May-13 13:01N 39°22' W 075°28'1 2.4
2017-May-13 12:30N 39°21' W 075°27'2 4.0
2017-May-13 12:01N 39°23' W 075°28'2 4.6
2017-May-13 11:30N 39°24' W 075°31'3 6.7
2017-May-13 11:01N 39°27' W 075°33'3 5.5
2017-May-13 10:30N 39°30' W 075°34'4 7.4
2017-May-13 10:00N 39°33' W 075°33'2 4.9
2017-May-13 09:31N 39°33' W 075°36'3 5.6
2017-May-13 09:00N 39°33' W 075°39'3 5.0
2017-May-13 08:31N 39°33' W 075°43'2 4.9
2017-May-13 08:00N 39°32' W 075°46'2 4.6
2017-May-13 07:31N 39°32' W 075°49'2 3.9
2017-May-13 07:01N 39°32' W 075°51'2 3.6
2017-May-13 06:30N 39°31' W 075°53'3 5.3
2017-May-13 06:00N 39°30' W 075°56'3 6.3
2017-May-13 05:29N 39°27' W 075°59'3 6.7
2017-May-13 05:00N 39°25' W 076°02'  
Track history (hours):
 
Tides and Currents Weather Stations Pressure Air Temp Water Temp Dewpoint Dewpoint Depression Visibility Wind Speed Wind Dir Waves Ship Positions

Valiant

Last reported at 2017-May-13 18:56 UTC. Time now 2017-May-23 17:02 UTC.
Position N 39°27' W 075°59'.
Warning: this ship's position is 9 days out of date.

Length 14 m.

Type: Sailing vessel. MMSI: 369970076.

Date/timePositionNaut miles runAvg speedWind from/ knotsBaromVisibWave heightAir tempDewpointWater temp
2017-May-13 18:56N 39°27' W 075°59'3 6.9
2017-May-13 18:30N 39°30' W 075°56'4 6.8
2017-May-13 17:59N 39°32' W 075°52'3 6.6
2017-May-13 17:31N 39°32' W 075°48'3 6.4
2017-May-13 17:01N 39°32' W 075°44'3 5.8
2017-May-13 16:31N 39°33' W 075°40'3 6.1
2017-May-13 16:01N 39°33' W 075°36'3 5.8
2017-May-13 15:30N 39°34' W 075°33'4 7.4
2017-May-13 15:01N 39°30' W 075°33'3 5.1
2017-May-13 14:30N 39°28' W 075°33'5 5.0
2017-May-13 13:31N 39°24' W 075°29'2 3.6
2017-May-13 13:01N 39°22' W 075°28'1 2.4
2017-May-13 12:30N 39°21' W 075°27'2 4.0
2017-May-13 12:01N 39°23' W 075°28'2 4.6
2017-May-13 11:30N 39°24' W 075°31'3 6.7
2017-May-13 11:01N 39°27' W 075°33'3 5.5
2017-May-13 10:30N 39°30' W 075°34'4 7.4
2017-May-13 10:00N 39°33' W 075°33'2 4.9
2017-May-13 09:31N 39°33' W 075°36'3 5.6
2017-May-13 09:00N 39°33' W 075°39'3 5.0
2017-May-13 08:31N 39°33' W 075°43'2 4.9
2017-May-13 08:00N 39°32' W 075°46'2 4.6
2017-May-13 07:31N 39°32' W 075°49'2 3.9
2017-May-13 07:01N 39°32' W 075°51'2 3.6
2017-May-13 06:30N 39°31' W 075°53'3 5.3
2017-May-13 06:00N 39°30' W 075°56'3 6.3
2017-May-13 05:29N 39°27' W 075°59'3 6.7
2017-May-13 05:00N 39°25' W 076°02'  

Dump ship's entire track history